Aérodrome :
LOGIN :

S'inscrire | Disclaimer

   EN    FR    IT 

 










Légende :    VFR   VFR Marginal   IFR   IFR Intensif   IFR Très Intensif
Visi : 
Plafond : 
>= 8 km
>= 3000ft
5 à 8 km
1000 à 3000 ft
1500m à 5 km
500 à 1000 ft
800 à 1500m
200 à 500 ft
< 800m
< 200 ft
Symboles :   Orages  Brouillard  Fortes neiges  Fortes précipitations  Vent > 20 kt
SIGMETs :   Divers  Orages  Givrage  Turbulence  Onde Orograph.  Cendres Volcan.






- Altitude de l'aérodrome : 502 ft
- Code IATA : ORK


EICK - Cork

DERNIER METAR :
  • 152030Z 22008KT 2000 -RA BKN002 BKN005 13/13 Q0993 TEMPO 1500

METARs EXPIRÉS :
  • 152000Z 18009KT 0900 R16/1900N R34/1500D -RA FG OVC002 13/13 Q0993 TEMPO 0300 BKN001
  • 151930Z 16013KT 1500 R16/P2000 R34/P2000 -RA BKN002 BKN003 13/13 Q0993 TEMPO 1000 BKN001
  • 151900Z 16015KT 2000 -RA BKN002 BKN003 13/13 Q0993 NOSIG
  • 151830Z 16017KT 2500 -RA SCT002 BKN003 13/12 Q0994 NOSIG
  • 151800Z 15019KT 2500 -RA SCT002 BKN003 13/12 Q0994 NOSIG

TAF TAF EICK
Valide du 15 à 18h jusqu'au 16 à 18h UTC


151700Z 1518/1618 16018G28KT 3000 -RA BKN003
BECMG 1519/1521 28015G25KT
TEMPO 1519/1521 0300 -RADZ FG BKN001
BECMG 1521/1523 9999 NSW FEW012 BKN020
BECMG 1522/1524 25010KT
PROB40
TEMPO 1612/1618 -SHRA SCT020CB
BECMG 1613/1615 22013KT



MET'MAP, la Météo Aéronautique d'un coup d'oeil ! - Copyright ORBIFLY Décembre 2007 - Disclaimer

ORBIFLY MET'MAP TEAM :

Programmation & Développement : Alexandra Zaïnal
Conception & Développement : Baudouin d'Aumeries
Co-Programmation & Développement : Marc-Olivier Méhu
Soutien technique & logistique : Manuel Goepfert

Contact : metmap@orbifly.com




SOURCES & CREDITS :

   NOAA